• Join FlightAware (Why Join?)
  • Login
  • US Flag 
01:02PM EDT


 

Airport Tracker/Info


-or-


 

Live Flight TrackerFlight Track Log ✈ DAL268 ✈ 05-Jun-2013 ✈ KJFK - LLBG / TLV

Flight Track Log - Related Links

Times and Time Zones

All times are in EDT time to prevent confusion due to time zone crossing. See the DAL268 flight status page for this flight to view local times or setup timezone preferences in your user account.

Time Position Orientation Groundspeed Altitude Reporting Facility
EDT Latitude Longitude Course Direction KTS MPH feet Rate Location/Type
11:31PM 40.6370 -73.7790 261° West 11 13  Level FlightAware
11:31PM 40.6380 -73.7790 360° North 12 14  Level FlightAware
11:33PM 40.5424 -73.4940 114° Southeast  Level FlightAware Approximate
11:34PM 40.4883 -73.3316 114° Southeast  Level FlightAware Approximate
11:35PM 40.4425 -73.1658 119° Southeast  Level FlightAware Approximate
11:36PM 40.3833 -73.0061 90° East  Level FlightAware Approximate
11:36PM 40.6370 -73.7790 90° East 19 22  Level FlightAware
11:37PM 40.6350 -73.7780 159° South 20 23  Level FlightAware
11:38PM 40.6350 -73.7770 90° East 17 20  Level FlightAware
11:38PM 40.6360 -73.7770 360° North 20 23  Level FlightAware
11:38PM 40.6370 -73.7760 37° Northeast 23 26  Level FlightAware
11:39PM 40.6380 -73.7750 37° Northeast 29 33  Level FlightAware
11:39PM 40.6390 -73.7740 37° Northeast 30 35  Level FlightAware
11:39PM 40.6400 -73.7730 37° Northeast 32 37  Level FlightAware
11:40PM 40.6410 -73.7730 360° North 15 17  Level FlightAware
11:40PM 40.6430 -73.7710 37° Northeast 34 39  Level FlightAware
11:41PM 40.6440 -73.7700 37° Northeast 26 30  Level FlightAware
11:41PM 40.6450 -73.7690 37° Northeast 25 29  Level FlightAware
11:42PM 40.6480 -73.7690 360° North 23 26  Level FlightAware
11:43PM 40.6490 -73.7670 57° Northeast 16 18  Level FlightAware
11:44PM 40.6490 -73.7660 90° East 22 25  Level FlightAware
11:45PM 40.6470 -73.7660 180° South 34 39 60 Level FlightAware
11:46PM 40.6230 -73.7850 211° Southwest 175 201 100 780 Climbing FlightAware
11:46PM 40.6050 -73.8000 212° Southwest 175 201 1,000 1,440 Climbing FlightAware
11:47PM 40.5850 -73.8170 213° Southwest 206 237 1,400 1,080 Climbing FlightAware
11:47PM 40.5700 -73.8300 213° Southwest 222 255 1,800 1,020 Climbing FlightAware
11:47PM 40.5600 -73.8370 208° Southwest 230 265 1,900 300 Climbing FlightAware
11:47PM 40.5500 -73.8380 184° South 238 274 1,900 1,080 Level FlightAware
11:48PM 40.5193 -73.8214 158° South 259 298 2,600 1,500 Climbing FlightAware ADS-B
11:48PM 40.5061 -73.8035 134° Southeast 259 298 3,000 1,740 Climbing FlightAware ADS-B
11:48PM 40.4928 -73.7764 123° Southeast 273 314 3,600 1,920 Climbing FlightAware ADS-B
11:49PM 40.4899 -73.7514 99° East 283 326 4,100 1,860 Climbing FlightAware ADS-B
11:49PM 40.4904 -73.7445 85° East 284 327 4,200 1,380 Climbing FlightAware ADS-B
11:49PM 40.4930 -73.7292 77° East 286 329 4,400 1,200 Climbing FlightAware ADS-B
11:50PM 40.5096 -73.6722 69° East 294 338 5,100 1,260 Climbing FlightAware ADS-B
11:50PM 40.5112 -73.6671 68° East 300 345 5,200 2,460 Climbing FlightAware ADS-B
11:50PM 40.5251 -73.6249 67° East 301 346 6,300 2,400 Climbing FlightAware ADS-B
11:50PM 40.5286 -73.6148 65° Northeast 304 350 6,500 2,280 Climbing FlightAware ADS-B
11:50PM 40.5374 -73.5894 65° Northeast 307 353 7,100 2,040 Climbing FlightAware ADS-B
11:50PM 40.5420 -73.5738 69° East 311 358 7,300 1,980 Climbing FlightAware ADS-B
11:51PM 40.5439 -73.5667 71° East 312 359 7,500 2,220 Climbing FlightAware ADS-B
11:51PM 40.5454 -73.5593 75° East 312 359 7,600 1,680 Climbing FlightAware ADS-B
11:51PM 40.5462 -73.5536 80° East 312 359 7,700 1,980 Climbing FlightAware ADS-B
11:51PM 40.5467 -73.5481 83° East 312 359 7,800 1,980 Climbing FlightAware ADS-B
11:51PM 40.5470 -73.5385 88° East 312 359 8,000 1,980 Climbing FlightAware ADS-B
11:51PM 40.5466 -73.5253 92° East 312 359 8,200 2,160 Climbing FlightAware ADS-B
11:51PM 40.5456 -73.5159 98° East 313 360 8,400 1,980 Climbing FlightAware ADS-B
11:51PM 40.5431 -73.5029 104° East 313 360 8,600 1,980 Climbing FlightAware ADS-B
11:51PM 40.5405 -73.4939 111° Southeast 313 360 8,800 2,100 Climbing FlightAware ADS-B
11:51PM 40.5326 -73.4671 111° Southeast 317 365 9,300 1,980 Climbing FlightAware ADS-B
11:52PM 40.5231 -73.4346 111° Southeast 320 368 9,900 1,380 Climbing FlightAware ADS-B
11:52PM 40.5045 -73.3723 111° Southeast 345 397 10,500 1,020 Climbing FlightAware ADS-B
11:53PM 40.4856 -73.3112 112° Southeast 372 428 11,000 900 Climbing FlightAware ADS-B
11:53PM 40.4802 -73.2897 108° East 380 437 11,100 720 Climbing FlightAware ADS-B
11:53PM 40.4775 -73.2737 103° East 388 447 11,200 900 Climbing FlightAware ADS-B
11:53PM 40.4767 -73.2595 94° East 393 452 11,300 1,200 Climbing FlightAware ADS-B
11:53PM 40.4780 -73.2402 85° East 400 460 11,500 1,020 Climbing FlightAware ADS-B
11:53PM 40.4817 -73.2213 76° East 404 465 11,600 1,080 Climbing FlightAware ADS-B
11:54PM 40.4883 -73.2010 67° East 408 470 11,800 1,740 Climbing FlightAware ADS-B
11:54PM 40.5128 -73.1526 56° Northeast 417 480 12,500 2,100 Climbing FlightAware ADS-B
11:54PM 40.5485 -73.0880 54° Northeast 424 488 13,700 2,220 Climbing FlightAware ADS-B
11:55PM 40.5846 -73.0226 54° Northeast 433 498 14,800 1,980 Climbing FlightAware ADS-B
11:56PM 40.6206 -72.9549 55° Northeast 442 509 15,800 2,040 Climbing FlightAware ADS-B
11:56PM 40.6585 -72.8837 55° Northeast 448 516 17,000 2,040 Climbing FlightAware ADS-B
11:57PM 40.6964 -72.8116 55° Northeast 455 524 18,000 1,800 Climbing FlightAware ADS-B
11:57PM 40.7337 -72.7429 54° Northeast 462 532 18,900 1,800 Climbing FlightAware ADS-B
11:58PM 40.7732 -72.6683 55° Northeast 469 540 19,900 1,800 Climbing FlightAware ADS-B
11:58PM 40.8120 -72.5950 55° Northeast 474 545 20,800 1,740 Climbing FlightAware ADS-B
11:59PM 40.8518 -72.5186 55° Northeast 479 551 21,700 1,740 Climbing FlightAware ADS-B
11:59PM 40.8907 -72.4438 55° Northeast 483 556 22,600 1,500 Climbing FlightAware ADS-B
12:00AM 40.9302 -72.3705 54° Northeast 490 564 23,300 1,320 Climbing FlightAware ADS-B
12:00AM 40.9693 -72.2936 56° Northeast 497 572 24,000 1,140 Climbing FlightAware ADS-B
12:01AM 41.0101 -72.2180 54° Northeast 507 583 24,500 1,080 Climbing FlightAware ADS-B
12:01AM 41.0515 -72.1379 56° Northeast 514 592 25,100 1,200 Climbing FlightAware ADS-B
12:02AM 41.1011 -72.0411 56° Northeast 521 600 25,900 780 Climbing FlightAware ADS-B
12:03AM 41.1620 -71.9250 55° Northeast 524 603 26,300 1,020 Climbing FlightAware
12:03AM 41.2140 -71.8250 55° Northeast 535 616 27,500 1,380 Climbing FlightAware
12:04AM 41.2860 -71.6820 56° Northeast 543 625 28,300 1,020 Climbing FlightAware
12:05AM 41.3500 -71.5580 55° Northeast 548 631 29,100 1,200 Climbing FlightAware
12:05AM 41.4050 -71.4490 56° Northeast 547 629 30,000 1,200 Climbing FlightAware
12:06AM 41.4630 -71.3340 56° Northeast 550 633 30,700 1,080 Climbing FlightAware
12:07AM 41.5250 -71.2130 56° Northeast 549 632 31,600 1,260 Climbing FlightAware
12:08AM 41.5840 -71.0950 56° Northeast 547 629 32,500 960 Climbing FlightAware
12:08AM 41.6470 -70.9700 56° Northeast 542 624 33,000 300 Climbing FlightAware
12:09AM 41.7000 -70.8640 56° Northeast 539 620 33,000  Level FlightAware
12:10AM 41.7870 -70.6890 56° Northeast 537 618 33,000  Level FlightAware
12:11AM 41.8750 -70.5090 57° Northeast 536 617 33,000  Level FlightAware
12:12AM 41.9470 -70.3650 56° Northeast 536 617 33,000  Level FlightAware
12:13AM 42.0060 -70.2450 56° Northeast 535 616 33,000  Level FlightAware
12:13AM 42.0620 -70.1310 56° Northeast 535 616 33,000  Level FlightAware
12:14AM 42.1220 -70.0050 57° Northeast 538 619 33,000  Level FlightAware
12:15AM 42.1770 -69.8930 56° Northeast 539 620 33,000  Level FlightAware
12:16AM 42.2370 -69.7660 57° Northeast 540 621 33,000  Level FlightAware
12:16AM 42.2930 -69.6520 56° Northeast 542 624 33,000  Level FlightAware
12:17AM 42.3540 -69.5240 57° Northeast 543 625 33,000  Level FlightAware
12:18AM 42.4090 -69.4070 57° Northeast 545 627 33,000  Level FlightAware
12:18AM 42.4590 -69.3010 57° Northeast 545 627 33,000  Level FlightAware
12:19AM 42.5210 -69.1710 57° Northeast 546 628 33,000  Level FlightAware
12:20AM 42.5820 -69.0410 57° Northeast 547 629 33,000  Level FlightAware
12:20AM 42.6310 -68.9370 57° Northeast 546 628 33,000  Level FlightAware
12:22AM 42.7280 -68.7310 57° Northeast 546 628 33,000  Level FlightAware
12:22AM 42.7790 -68.6180 58° Northeast 33,000  Level FlightAware
12:23AM 42.8410 -68.4840 58° Northeast 544 626 33,000  Level FlightAware
12:24AM 42.9170 -68.3210 57° Northeast 543 625 33,000  Level FlightAware
12:25AM 42.9750 -68.1940 58° Northeast 538 619 33,000  Level FlightAware
12:25AM 43.0170 -68.1010 58° Northeast 539 620 33,000  Level FlightAware
12:26AM 43.0950 -67.9250 59° Northeast 539 620 33,000  Level FlightAware
12:27AM 43.1580 -67.7880 58° Northeast 539 620 33,000  Level FlightAware
12:28AM 43.2190 -67.6540 58° Northeast 539 620 33,000  Level FlightAware
12:28AM 43.2700 -67.5390 59° Northeast 538 619 33,000  Level FlightAware
12:29AM 43.3220 -67.4220 59° Northeast 538 619 33,000  Level FlightAware
12:30AM 43.4010 -67.2420 59° Northeast 537 618 33,000  Level FlightAware
12:31AM 43.4530 -67.1250 58° Northeast 537 618 33,000  Level FlightAware
12:31AM 43.5110 -66.9950 58° Northeast 538 619 33,000  Level FlightAware
12:32AM 43.5610 -66.8790 59° Northeast 539 620 33,000  Level FlightAware
12:33AM 43.6150 -66.7540 59° Northeast 541 623 33,000  Level FlightAware
12:33AM 43.6660 -66.6350 59° Northeast 543 625 33,000  Level FlightAware
12:34AM 43.7250 -66.4990 59° Northeast 544 626 33,000  Level FlightAware
12:35AM 43.7770 -66.3790 59° Northeast 545 627 33,000  Level FlightAware
12:36AM 43.8340 -66.2460 59° Northeast 546 628 33,000  Level FlightAware
12:36AM 43.8870 -66.1220 59° Northeast 546 628 33,000  Level FlightAware
12:37AM 43.9440 -65.9850 60° Northeast 551 634 33,000  Level FlightAware
12:38AM 43.9960 -65.8630 59° Northeast 552 635 33,000  Level FlightAware
12:38AM 44.0470 -65.7400 60° Northeast 553 636 33,000  Level FlightAware
12:39AM 44.1050 -65.6050 59° Northeast 554 638 33,000  Level FlightAware
12:40AM 44.1570 -65.4780 60° Northeast 555 639 33,000  Level FlightAware
12:40AM 44.2070 -65.3580 60° Northeast 555 639 33,000  Level FlightAware
12:41AM 44.2660 -65.2150 60° Northeast 556 640 33,000  Level FlightAware
12:42AM 44.3160 -65.0910 61° Northeast 553 636 33,000  Level FlightAware
12:43AM 44.3740 -64.9510 60° Northeast 552 635 33,000  Level FlightAware
12:43AM 44.4190 -64.8400 60° Northeast 550 633 33,000  Level FlightAware
12:44AM 44.4820 -64.6850 60° Northeast 553 636 33,000  Level FlightAware
12:45AM 44.5280 -64.5720 60° Northeast 555 639 33,000  Level FlightAware
12:45AM 44.5860 -64.4250 61° Northeast 554 638 33,000  Level FlightAware
12:46AM 44.6380 -64.2930 61° Northeast 552 635 33,000  Level FlightAware
12:47AM 44.6930 -64.1560 61° Northeast 549 632 33,000  Level FlightAware
12:48AM 44.7430 -64.0320 60° Northeast 545 627 33,000  Level FlightAware
12:48AM 44.7950 -63.8990 61° Northeast 544 626 33,000  Level FlightAware
12:49AM 44.8430 -63.7750 61° Northeast 542 624 33,000  Level FlightAware
12:50AM 44.8910 -63.6540 61° Northeast 542 624 33,000  Level FlightAware
12:50AM 44.9410 -63.5240 61° Northeast 541 623 33,000  Level FlightAware
12:51AM 45.0020 -63.3620 62° Northeast 541 623 33,000  Level FlightAware
12:52AM 45.0380 -63.2660 62° Northeast 541 623 33,000  Level FlightAware
12:53AM 45.0840 -63.1440 62° Northeast 541 623 33,000  Level FlightAware
12:53AM 45.1200 -63.0480 62° Northeast 541 623 33,000  Level FlightAware
12:54AM 45.1690 -62.9170 62° Northeast 541 623 33,000  Level FlightAware
12:55AM 45.2060 -62.8190 62° Northeast 541 623 33,000  Level FlightAware
12:55AM 45.2450 -62.7150 62° Northeast 541 623 33,000  Level FlightAware
12:56AM 45.2920 -62.5890 62° Northeast 541 623 33,000  Level FlightAware
12:57AM 45.3290 -62.4900 62° Northeast 541 623 33,000  Level FlightAware
12:58AM 45.3770 -62.3620 62° Northeast 541 623 33,000  Level FlightAware
12:58AM 45.4140 -62.2630 62° Northeast 541 623 33,000  Level FlightAware
12:59AM 45.4610 -62.1350 62° Northeast 541 623 33,000  Level FlightAware
01:00AM 45.4980 -62.0350 62° Northeast 541 623 33,000  Level FlightAware
01:00AM 45.5390 -61.9250 62° Northeast 541 623 33,000  Level FlightAware
01:01AM 45.7260 -61.4170 62° Northeast 562 647 33,000  Level FlightAware
01:02AM 45.8090 -61.1850 63° Northeast 565 650 33,000  Level FlightAware
01:03AM 45.8570 -61.0510 63° Northeast 567 652 33,000  Level FlightAware
01:04AM 45.9040 -60.9170 63° Northeast 568 654 33,000  Level FlightAware
01:05AM 45.9570 -60.7650 63° Northeast 570 656 33,000  Level FlightAware
01:05AM 46.0050 -60.6260 64° Northeast 571 657 33,000  Level FlightAware
01:06AM 46.0560 -60.4800 63° Northeast 572 658 33,000  Level FlightAware
01:07AM 46.1060 -60.3360 63° Northeast 574 661 33,000  Level FlightAware
01:07AM 46.1570 -60.1890 63° Northeast 575 662 33,000  Level FlightAware
01:08AM 46.1960 -60.0720 64° Northeast 574 661 33,000  Level FlightAware
01:09AM 46.2540 -59.9030 64° Northeast 576 663 33,000  Level FlightAware
01:09AM 46.3020 -59.7580 64° Northeast 578 665 33,000  Level FlightAware
01:10AM 46.3480 -59.6260 63° Northeast 582 670 33,000  Level FlightAware
01:11AM 46.3880 -59.5030 65° Northeast 585 673 33,000  Level FlightAware
01:12AM 46.4510 -59.3150 64° Northeast 587 676 33,000  Level FlightAware
01:12AM 46.4950 -59.1800 65° Northeast 588 677 33,000  Level FlightAware
01:13AM 46.5500 -59.0120 64° Northeast 590 679 33,000  Level FlightAware
01:14AM 46.6010 -58.8550 65° Northeast 592 681 33,000  Level FlightAware
01:14AM 46.6470 -58.7140 65° Northeast 593 682 33,000  Level FlightAware
01:15AM 46.6920 -58.5770 64° Northeast 593 682 33,000  Level FlightAware
01:16AM 46.7480 -58.4050 65° Northeast 593 682 33,000  Level FlightAware
01:17AM 46.7970 -58.2580 64° Northeast 593 682 33,000  Level FlightAware
01:17AM 46.8350 -58.1440 64° Northeast 593 682 33,000  Level FlightAware
01:18AM 46.8830 -58.0000 64° Northeast 593 682 33,000  Level FlightAware
01:19AM 46.9200 -57.8900 64° Northeast 593 682 33,000  Level FlightAware
01:19AM 47.0000 -57.6000 68° East 33,000  Level FlightAware
01:20AM 47.0640 -57.3930 66° East 599 689 33,000  Level FlightAware
01:21AM 47.1090 -57.2440 66° East 599 689 33,000  Level FlightAware
01:22AM 47.1590 -57.0770 66° East 598 688 33,000  Level FlightAware
01:22AM 47.2040 -56.9290 66° East 598 688 33,000  Level FlightAware
01:23AM 47.2540 -56.7610 66° East 599 689 33,000  Level FlightAware
01:24AM 47.2980 -56.6120 66° East 597 687 33,000  Level FlightAware
01:25AM 47.3480 -56.4400 67° East 598 688 33,000  Level FlightAware
01:25AM 47.3850 -56.3170 66° East 597 687 33,000  Level FlightAware
01:26AM 47.4330 -56.1520 67° East 599 689 33,000  Level FlightAware
01:27AM 47.4820 -55.9830 67° East 600 690 33,000  Level FlightAware
01:27AM 47.5330 -55.8020 67° East 598 688 33,000  Level FlightAware
01:28AM 47.5760 -55.6520 67° East 592 681 33,000  Level FlightAware
01:29AM 47.6130 -55.5250 67° East 591 680 33,000  Level FlightAware
01:29AM 47.6600 -55.3530 68° East 593 682 33,000  Level FlightAware
01:30AM 47.6940 -55.2370 66° East 593 682 33,000  Level FlightAware
01:31AM 47.7530 -55.0220 68° East 594 684 33,000  Level FlightAware
01:32AM 47.7950 -54.8680 68° East 595 685 33,000  Level FlightAware
01:32AM 47.8360 -54.7200 68° East 597 687 33,000  Level FlightAware
01:33AM 47.8860 -54.5370 68° East 598 688 33,000  Level FlightAware
01:34AM 47.9250 -54.3920 68° East 599 689 33,000  Level FlightAware
01:34AM 47.9670 -54.2340 68° East 600 690 33,000  Level FlightAware
01:35AM 48.0290 -54.0040 68° East 599 689 33,000  Level FlightAware
01:36AM 48.0680 -53.8580 68° East 599 689 33,000  Level FlightAware
01:37AM 48.1130 -53.6840 69° East 599 689 33,000  Level FlightAware
01:37AM 48.1540 -53.5260 69° East 599 689 33,000  Level FlightAware
01:38AM 48.1980 -53.3560 69° East 598 688 33,000  Level FlightAware
01:39AM 48.2370 -53.2050 69° East 598 688 33,000  Level FlightAware
01:40AM 48.2670 -53.0220 76° East 594 684 33,000  Level FlightAware
01:40AM 48.2940 -52.8700 75° East 596 686 33,000 60 Level FlightAware
01:41AM 48.3290 -52.7090 72° East 597 687 33,100 660 Climbing FlightAware
01:42AM 48.3700 -52.5380 70° East 593 682 34,000 600 Climbing FlightAware
01:42AM 48.4080 -52.3800 70° East 591 680 34,000 -780 Level FlightAware
01:43AM 48.2400 -53.1940 253° West 598 688 33,000 -720 Descending FlightAware
01:44AM 48.2610 -53.0660 76° East 594 684 33,000  Level FlightAware
01:44AM 48.2830 -52.9300 76° East 596 686 33,000  Level FlightAware
01:45AM 48.3260 -52.7250 72° East 597 687 33,000 600 Level FlightAware
01:46AM 48.3770 -52.5110 70° East 592 681 34,000 600 Climbing FlightAware
01:47AM 48.6520 -51.3710 70° East 585 673 34,000  Level FlightAware
01:47AM 48.1333 -53.6000 69° East 604 695 34,000  Level ETMS Enhanced Traffic Management System
01:47AM 48.6920 -51.2000 70° East 588 677 34,000  Level FlightAware
01:48AM 48.7250 -51.0610 70° East 589 678 34,000  Level FlightAware
01:49AM 48.7740 -50.8520 70° East 589 678 34,000  Level FlightAware
01:50AM 48.8130 -50.6900 70° East 589 678 34,000  Level FlightAware
01:50AM 48.8440 -50.5580 70° East 589 678 34,000  Level FlightAware
01:51AM 48.8740 -50.4350 70° East 589 678 34,000  Level FlightAware
01:52AM 48.9120 -50.2760 69° East 589 678 34,000  Level FlightAware
01:53AM 48.9420 -50.1500 70° East 589 678 34,000  Level FlightAware
01:53AM 48.9810 -49.9850 70° East 589 678 34,000  Level FlightAware
01:54AM 49.0110 -49.8620 70° East 589 678 34,000  Level FlightAware
01:55AM 49.0000 -50.0000 69° East 563 648 34,000  Level ETMS Enhanced Traffic Management System
01:55AM 49.0480 -49.7060 70° East 589 678 34,000  Level FlightAware
01:55AM 49.0833 -49.4000 69° East 580 667 34,000  Level Gander Center
01:55AM 49.0000 -50.0000 69° East 563 648 34,000  Level ETMS Enhanced Traffic Management System
01:55AM 49.0760 -49.5860 70° East 589 678 34,000  Level FlightAware
01:56AM 49.1333 -49.1667 69° East 580 667 34,000  Level Gander Center
01:56AM 49.1140 -49.4270 70° East 589 678 34,000  Level FlightAware
01:57AM 49.1430 -49.3070 70° East 589 678 34,000  Level FlightAware
01:57AM 49.1833 -48.9500 70° East 570 656 34,000  Level Gander Center
01:58AM 49.1920 -49.1000 70° East 589 678 34,000  Level FlightAware
01:58AM 49.2500 -48.7167 66° East 570 656 34,000  Level Gander Center
01:58AM 49.2200 -48.9800 70° East 589 678 34,000  Level FlightAware
01:59AM 49.3000 -48.4667 73° East 570 656 34,000  Level Gander Center
02:00AM 49.3667 -48.2833 61° Northeast 570 656 34,000  Level Gander Center
02:02AM 49.4387 -47.9817 70° East  Level FlightAware Approximate
02:09AM 49.7791 -46.4962 70° East  Level FlightAware Approximate
02:10AM 49.8262 -46.2823 71° East  Level FlightAware Approximate
02:11AM 49.8729 -46.0680 71° East  Level FlightAware Approximate
02:12AM 49.9192 -45.8533 71° East  Level FlightAware Approximate
02:13AM 49.9651 -45.6382 72° East  Level FlightAware Approximate
02:14AM 50.0106 -45.4226 72° East  Level FlightAware Approximate
02:15AM 50.0556 -45.2067 72° East  Level FlightAware Approximate
02:16AM 50.1003 -44.9903 72° East  Level FlightAware Approximate
02:17AM 50.1446 -44.7735 72° East  Level FlightAware Approximate
02:18AM 50.1885 -44.5564 72° East  Level FlightAware Approximate
02:19AM 50.2320 -44.3388 73° East  Level FlightAware Approximate
02:20AM 50.2750 -44.1209 73° East  Level FlightAware Approximate
02:21AM 50.3177 -43.9025 73° East  Level FlightAware Approximate
02:22AM 50.3600 -43.6838 73° East  Level FlightAware Approximate
02:23AM 50.4018 -43.4647 73° East  Level FlightAware Approximate
02:24AM 50.4432 -43.2452 73° East  Level FlightAware Approximate
02:25AM 50.4842 -43.0253 74° East  Level FlightAware Approximate
02:26AM 50.5248 -42.8050 74° East  Level FlightAware Approximate
02:27AM 50.5650 -42.5844 74° East  Level FlightAware Approximate
02:28AM 50.6048 -42.3633 74° East  Level FlightAware Approximate
02:29AM 50.6441 -42.1420 74° East  Level FlightAware Approximate
02:30AM 50.6830 -41.9202 74° East  Level FlightAware Approximate
02:31AM 50.7215 -41.6981 75° East  Level FlightAware Approximate
02:32AM 50.7596 -41.4756 75° East  Level FlightAware Approximate
02:33AM 50.7973 -41.2527 75° East  Level FlightAware Approximate
02:34AM 50.8345 -41.0295 75° East  Level FlightAware Approximate
02:35AM 50.8713 -40.8060 75° East  Level FlightAware Approximate
02:36AM 50.9077 -40.5820 75° East  Level FlightAware Approximate
02:37AM 50.9437 -40.3578 76° East  Level FlightAware Approximate
02:37AM 51.0000 -40.0000 86° East 539 620 34,000  Level ETMS Enhanced Traffic Management System
02:38AM 50.9792 -40.1332 76° East  Level FlightAware Approximate
02:39AM 51.0040 -39.9057 86° East  Level FlightAware Approximate
02:40AM 51.0132 -39.6821 86° East  Level FlightAware Approximate
02:41AM 51.0219 -39.4584 86° East  Level FlightAware Approximate
02:42AM 51.0302 -39.2346 87° East  Level FlightAware Approximate
02:43AM 51.0593 -38.3362 87° East 539 620 34,000  Level FlightAware Transoceanic
02:44AM 51.0658 -38.0982 88° East 539 620 34,000  Level FlightAware Transoceanic
02:45AM 51.0719 -37.8601 88° East 539 620 34,000  Level FlightAware Transoceanic
02:46AM 51.0775 -37.6220 88° East 539 620 34,000  Level FlightAware Transoceanic
02:47AM 51.0826 -37.3838 88° East 539 620 34,000  Level FlightAware Transoceanic
02:48AM 51.0872 -37.1455 88° East 539 620 34,000  Level FlightAware Transoceanic
02:49AM 51.0913 -36.9073 89° East 539 620 34,000  Level FlightAware Transoceanic
02:50AM 51.0949 -36.6689 89° East 539 620 34,000  Level FlightAware Transoceanic
02:51AM 51.0981 -36.4306 89° East 539 620 34,000  Level FlightAware Transoceanic
02:52AM 51.1007 -36.1922 89° East 539 620 34,000  Level FlightAware Transoceanic
02:53AM 51.1029 -35.9538 89° East 539 620 34,000  Level FlightAware Transoceanic
02:54AM 51.1046 -35.7154 89° East 539 620 34,000  Level FlightAware Transoceanic
02:55AM 51.1058 -35.4769 90° East 539 620 34,000  Level FlightAware Transoceanic
02:56AM 51.1065 -35.2385 90° East 539 620 34,000  Level FlightAware Transoceanic
02:57AM 51.1068 -35.0000 90° East 539 620 34,000  Level FlightAware Transoceanic
02:58AM 51.1065 -34.7615 90° East 539 620 34,000  Level FlightAware Transoceanic
02:59AM 51.1058 -34.5231 90° East 539 620 34,000  Level FlightAware Transoceanic
03:00AM 51.1046 -34.2846 91° East 539 620 34,000  Level FlightAware Transoceanic
03:01AM 51.1029 -34.0462 91° East 539 620 34,000  Level FlightAware Transoceanic
03:02AM 51.1007 -33.8078 91° East 539 620 34,000  Level FlightAware Transoceanic
03:03AM 51.0981 -33.5694 91° East 539 620 34,000  Level FlightAware Transoceanic
03:04AM 51.0949 -33.3311 91° East 539 620 34,000  Level FlightAware Transoceanic
03:05AM 51.0913 -33.0927 91° East 539 620 34,000  Level FlightAware Transoceanic
03:06AM 51.0872 -32.8545 92° East 539 620 34,000  Level FlightAware Transoceanic
03:07AM 51.0826 -32.6162 92° East 539 620 34,000  Level FlightAware Transoceanic
03:08AM 51.0775 -32.3780 92° East 539 620 34,000  Level FlightAware Transoceanic
03:09AM 51.0719 -32.1399 92° East 539 620 34,000  Level FlightAware Transoceanic
03:10AM 51.0658 -31.9018 92° East 539 620 34,000  Level FlightAware Transoceanic
03:11AM 51.0593 -31.6638 93° East 539 620 34,000  Level FlightAware Transoceanic
03:12AM 51.0523 -31.4259 93° East 539 620 34,000  Level FlightAware Transoceanic
03:13AM 51.0448 -31.1880 93° East 539 620 34,000  Level FlightAware Transoceanic
03:14AM 51.0368 -30.9502 93° East 539 620 34,000  Level FlightAware Transoceanic
03:15AM 51.0283 -30.7125 93° East 539 620 34,000  Level FlightAware Transoceanic
03:16AM 51.0193 -30.4749 94° East 539 620 34,000  Level FlightAware Transoceanic
03:17AM 51.0099 -30.2374 94° East 539 620 34,000 180 Level FlightAware Transoceanic
03:18AM 51.0006 -30.0138 94° East  Level FlightAware Approximate
03:19AM 50.9908 -29.7903 94° East  Level FlightAware Approximate
03:20AM 51.0082 -29.8041 86° East  Level FlightAware Approximate
03:21AM 51.0172 -29.5804 86° East  Level FlightAware Approximate
03:21AM 51.0000 -30.0000 86° East 514 592 35,000  Level ETMS Enhanced Traffic Management System
03:22AM 51.0257 -29.3566 86° East  Level FlightAware Approximate
03:23AM 51.0339 -29.1328 87° East  Level FlightAware Approximate
03:24AM 51.0416 -28.9089 87° East  Level FlightAware Approximate
03:25AM 51.0488 -28.6849 87° East  Level FlightAware Approximate
03:26AM 51.0557 -28.4609 87° East  Level FlightAware Approximate
03:27AM 51.0635 -28.1847 88° East 514 592 35,000  Level FlightAware Transoceanic
03:28AM 51.0695 -27.9575 88° East 514 592 35,000  Level FlightAware Transoceanic
03:29AM 51.0750 -27.7302 88° East 514 592 35,000  Level FlightAware Transoceanic
03:30AM 51.0801 -27.5029 88° East 514 592 35,000  Level FlightAware Transoceanic
03:31AM 51.0847 -27.2755 88° East 514 592 35,000  Level FlightAware Transoceanic
03:32AM 51.0889 -27.0481 88° East 514 592 35,000  Level FlightAware Transoceanic
03:33AM 51.0927 -26.8206 89° East 514 592 35,000  Level FlightAware Transoceanic
03:34AM 51.0960 -26.5931 89° East 514 592 35,000  Level FlightAware Transoceanic
03:35AM 51.0988 -26.3656 89° East 514 592 35,000  Level FlightAware Transoceanic
03:36AM 51.1013 -26.1380 89° East 514 592 35,000  Level FlightAware Transoceanic
03:37AM 51.1033 -25.9104 89° East 514 592 35,000  Level FlightAware Transoceanic
03:38AM 51.1048 -25.6828 89° East 514 592 35,000  Level FlightAware Transoceanic
03:39AM 51.1059 -25.4552 90° East 514 592 35,000  Level FlightAware Transoceanic
03:40AM 51.1066 -25.2276 90° East 514 592 35,000  Level FlightAware Transoceanic
03:41AM 51.1068 -25.0000 90° East 514 592 35,000  Level FlightAware Transoceanic
03:42AM 51.1066 -24.7724 90° East 514 592 35,000  Level FlightAware Transoceanic
03:43AM 51.1059 -24.5448 90° East 514 592 35,000  Level FlightAware Transoceanic
03:44AM 51.1048 -24.3172 91° East 514 592 35,000  Level FlightAware Transoceanic
03:45AM 51.1033 -24.0896 91° East 514 592 35,000  Level FlightAware Transoceanic
03:46AM 51.1013 -23.8620 91° East 514 592 35,000  Level FlightAware Transoceanic
03:47AM 51.0988 -23.6344 91° East 514 592 35,000  Level FlightAware Transoceanic
03:48AM 51.0960 -23.4069 91° East 514 592 35,000  Level FlightAware Transoceanic
03:49AM 51.0927 -23.1794 91° East 514 592 35,000  Level FlightAware Transoceanic
03:50AM 51.0889 -22.9519 92° East 514 592 35,000  Level FlightAware Transoceanic
03:51AM 51.0847 -22.7245 92° East 514 592 35,000  Level FlightAware Transoceanic
03:52AM 51.0801 -22.4971 92° East 514 592 35,000  Level FlightAware Transoceanic
03:53AM 51.0750 -22.2698 92° East 514 592 35,000  Level FlightAware Transoceanic
03:54AM 51.0695 -22.0425 92° East 514 592 35,000  Level FlightAware Transoceanic
03:55AM 51.0635 -21.8153 92° East 514 592 35,000  Level FlightAware Transoceanic
03:56AM 51.0571 -21.5881 93° East 514 592 35,000  Level FlightAware Transoceanic
03:57AM 51.0503 -21.3610 93° East 514 592 35,000  Level FlightAware Transoceanic
03:58AM 51.0430 -21.1340 93° East 514 592 35,000  Level FlightAware Transoceanic
03:59AM 51.0353 -20.9070 93° East 514 592 35,000  Level FlightAware Transoceanic
04:00AM 51.0271 -20.6801 93° East 514 592 35,000  Level FlightAware Transoceanic
04:01AM 51.0185 -20.4533 94° East 514 592 35,000  Level FlightAware Transoceanic
04:02AM 51.0095 -20.2266 94° East 514 592 35,000  Level FlightAware Transoceanic
04:03AM 51.0001 -20.0026 94° East  Level FlightAware Approximate
04:04AM 50.9906 -19.7787 94° East  Level FlightAware Approximate
04:05AM 50.9760 -19.7843 100° East  Level FlightAware Approximate
04:06AM 50.9510 -19.5635 100° East  Level FlightAware Approximate
04:07AM 50.9256 -19.3427 100° East  Level FlightAware Approximate
04:08AM 50.8997 -19.1220 100° East  Level FlightAware Approximate
04:09AM 50.8734 -18.9017 101° East  Level FlightAware Approximate
04:10AM 50.8467 -18.6815 101° East  Level FlightAware Approximate
04:11AM 50.8196 -18.4617 101° East  Level FlightAware Approximate
04:12AM 50.7921 -18.2421 101° East  Level FlightAware Approximate
04:13AM 50.7641 -18.0227 101° East  Level FlightAware Approximate
04:14AM 50.7358 -17.8036 101° East  Level FlightAware Approximate
04:15AM 50.7070 -17.5848 102° East  Level FlightAware Approximate
04:16AM 50.6779 -17.3663 102° East  Level FlightAware Approximate
04:17AM 50.6483 -17.1480 102° East  Level FlightAware Approximate
04:18AM 50.6183 -16.9300 102° East  Level FlightAware Approximate
04:19AM 50.5879 -16.7123 102° East  Level FlightAware Approximate
04:20AM 50.5571 -16.4948 102° East  Level FlightAware Approximate
04:21AM 50.5259 -16.2777 103° East  Level FlightAware Approximate
04:22AM 50.4943 -16.0608 103° East  Level FlightAware Approximate
04:23AM 50.4623 -15.8442 103° East  Level FlightAware Approximate
04:24AM 50.4299 -15.6279 103° East  Level FlightAware Approximate
04:25AM 50.3971 -15.4120 103° East  Level FlightAware Approximate
04:26AM 50.3639 -15.1963 103° East  Level FlightAware Approximate
04:27AM 50.3303 -14.9809 104° East  Level FlightAware Approximate
04:28AM 50.2960 -14.7663 104° East  Level FlightAware Approximate
04:29AM 50.2613 -14.5521 104° East  Level FlightAware Approximate
04:30AM 50.2262 -14.3382 104° East  Level FlightAware Approximate
04:31AM 50.1907 -14.1245 104° East  Level FlightAware Approximate
04:32AM 50.1549 -13.9112 105° East  Level FlightAware Approximate
04:33AM 50.1186 -13.6983 105° East  Level FlightAware Approximate
04:34AM 50.0820 -13.4856 105° East  Level FlightAware Approximate
04:35AM 50.0449 -13.2733 105° East  Level FlightAware Approximate
04:36AM 50.0075 -13.0613 105° East  Level FlightAware Approximate
04:37AM 49.9697 -12.8496 105° East  Level FlightAware Approximate
04:38AM 49.9315 -12.6383 106° East  Level FlightAware Approximate
04:39AM 49.8929 -12.4273 106° East  Level FlightAware Approximate
04:40AM 49.8540 -12.2166 106° East  Level FlightAware Approximate
04:41AM 49.8146 -12.0063 106° East  Level FlightAware Approximate
04:42AM 49.7749 -11.7963 106° East  Level FlightAware Approximate
04:43AM 49.7348 -11.5867 106° East  Level FlightAware Approximate
04:44AM 49.6943 -11.3774 107° East  Level FlightAware Approximate
04:45AM 49.6535 -11.1684 107° East  Level FlightAware Approximate
04:46AM 49.6123 -10.9599 107° East  Level FlightAware Approximate
04:46AM 50.0090 -10.9700 107° East 464 534 35,000  Level FlightAware
04:47AM 49.5707 -10.7516 107° East  Level FlightAware Approximate
04:47AM 49.9740 -10.8340 112° Southeast 464 534 35,000  Level FlightAware
04:48AM 49.9490 -10.7390 112° Southeast 464 534 35,000  Level FlightAware
04:48AM 49.8940 -10.5430 113° Southeast 463 533 35,000  Level FlightAware
04:49AM 49.8610 -10.4180 112° Southeast 463 533 35,000  Level FlightAware
04:50AM 49.8370 -10.3230 111° Southeast 463 533 35,000  Level FlightAware
04:51AM 49.8040 -10.1980 112° Southeast 463 533 35,000  Level FlightAware
04:51AM 49.7790 -10.1040 112° Southeast 463 533 35,000  Level FlightAware
04:52AM 49.7120 -9.8880 116° Southeast 466 536 35,000  Level FlightAware
04:53AM 49.6850 -9.7910 113° Southeast 466 536 35,000  Level FlightAware
04:53AM 49.6380 -9.6250 114° Southeast 468 539 35,000  Level FlightAware
04:54AM 49.5990 -9.4910 114° Southeast 468 539 35,000  Level FlightAware
04:55AM 49.5510 -9.3230 114° Southeast 467 537 35,000  Level FlightAware
04:56AM 49.5160 -9.2010 114° Southeast 467 537 35,000  Level FlightAware
04:56AM 49.4770 -9.0650 114° Southeast 466 536 35,000  Level FlightAware
04:57AM 49.4511 -8.9793 114° Southeast 490 564 35,000  Level FlightAware UK
04:57AM 49.4410 -8.9410 114° Southeast 465 535 35,000  Level FlightAware
04:57AM 49.4248 -8.8891 114° Southeast 490 564 35,000  Level FlightAware UK
04:58AM 49.4090 -8.8348 114° Southeast 490 564 35,000  Level FlightAware UK
04:58AM 49.4080 -8.8330 114° Southeast 465 535 35,000  Level FlightAware
04:58AM 49.3877 -8.7627 114° Southeast 490 564 35,000  Level FlightAware UK
04:58AM 49.3718 -8.7085 114° Southeast 490 564 35,000  Level FlightAware UK
04:59AM 49.3650 -8.6860 114° Southeast 464 534 35,000  Level FlightAware
04:59AM 49.3451 -8.6186 114° Southeast 490 564 35,000  Level FlightAware UK
04:59AM 49.3291 -8.5648 115° Southeast 488 562 35,000  Level FlightAware UK
04:59AM 49.3290 -8.5630 115° Southeast 463 533 35,000  Level FlightAware
05:00AM 49.3131 -8.5111 115° Southeast 486 559 35,000  Level FlightAware UK
05:00AM 49.3060 -8.4860 115° Southeast 463 533 35,000  Level FlightAware
05:00AM 49.2970 -8.4574 115° Southeast 486 559 35,000  Level FlightAware UK
05:00AM 49.2864 -8.4216 115° Southeast 486 559 35,000  Level FlightAware UK
05:00AM 49.2703 -8.3679 115° Southeast 486 559 35,000  Level FlightAware UK
05:01AM 49.2610 -8.3390 115° Southeast 464 534 35,000  Level FlightAware
05:01AM 49.2435 -8.2786 115° Southeast 488 562 35,000  Level FlightAware UK
05:01AM 49.2275 -8.2248 114° Southeast 488 562 35,000  Level FlightAware UK
05:01AM 49.2250 -8.2170 114° Southeast 464 534 35,000  Level FlightAware
05:01AM 49.2114 -8.1713 114° Southeast 488 562 35,000  Level FlightAware UK
05:02AM 49.1952 -8.1177 115° Southeast 490 564 35,000  Level FlightAware UK
05:02AM 49.1860 -8.0890 115° Southeast 464 534 35,000  Level FlightAware
05:02AM 49.1680 -8.0285 115° Southeast 488 562 35,000  Level FlightAware UK
05:03AM 49.1515 -7.9744 115° Southeast 488 562 35,000  Level FlightAware UK
05:03AM 49.1490 -7.9670 115° Southeast 464 534 35,000  Level FlightAware
05:03AM 49.1352 -7.9209 115° Southeast 488 562 35,000  Level FlightAware UK
05:03AM 49.1186 -7.8677 115° Southeast 488 562 35,000  Level FlightAware UK
05:03AM 49.1090 -7.8380 115° Southeast 465 535 35,000  Level FlightAware
05:04AM 49.0905 -7.7794 115° Southeast 486 559 35,000  Level FlightAware UK
05:04AM 49.0733 -7.7265 116° Southeast 486 559 35,000  Level FlightAware UK
05:04AM 49.0710 -7.7200 116° Southeast 465 535 35,000  Level FlightAware
05:04AM 49.0503 -7.6561 116° Southeast 486 559 35,000  Level FlightAware UK
05:05AM 49.0331 -7.6032 116° Southeast 488 562 35,000  Level FlightAware UK
05:05AM 49.0330 -7.6020 116° Southeast 467 537 35,000  Level FlightAware
05:05AM 49.0160 -7.5502 116° Southeast 486 559 35,000  Level FlightAware UK
05:05AM 48.9988 -7.4971 116° Southeast 486 559 35,000  Level FlightAware UK
05:05AM 48.9920 -7.4770 116° Southeast 469 540 35,000  Level FlightAware
05:06AM 48.9759 -7.4261 116° Southeast 486 559 35,000  Level FlightAware UK
05:06AM 48.9588 -7.3727 116° Southeast 488 562 35,000  Level FlightAware UK
05:06AM 48.9500 -7.3470 116° Southeast 471 542 35,000  Level FlightAware
05:06AM 48.9301 -7.2835 116° Southeast 490 564 35,000  Level FlightAware UK
05:07AM 48.9127 -7.2301 116° Southeast 490 564 35,000  Level FlightAware UK
05:07AM 48.9120 -7.2280 116° Southeast 471 542 35,000  Level FlightAware
05:07AM 48.8953 -7.1767 116° Southeast 490 564 35,000  Level FlightAware UK
05:07AM 48.8776 -7.1232 117° Southeast 488 562 35,000  Level FlightAware UK
05:08AM 48.8670 -7.0920 117° Southeast 472 543 35,000  Level FlightAware
05:08AM 48.8482 -7.0340 117° Southeast 488 562 35,000  Level FlightAware UK
05:08AM 48.8306 -6.9806 117° Southeast 488 562 35,000  Level FlightAware UK
05:08AM 48.8290 -6.9760 117° Southeast 473 544 35,000  Level FlightAware
05:08AM 48.8129 -6.9271 117° Southeast 488 562 35,000  Level FlightAware UK
05:09AM 48.7951 -6.8730 117° Southeast 490 564 35,000  Level FlightAware UK
05:09AM 48.7890 -6.8540 117° Southeast 474 545 35,000  Level FlightAware
05:09AM 48.7716 -6.8016 117° Southeast 490 564 35,000  Level FlightAware UK
05:09AM 48.7538 -6.7482 117° Southeast 490 564 35,000  Level FlightAware UK
05:10AM 48.7500 -6.7350 117° Southeast 474 545 35,000  Level FlightAware
05:10AM 48.7301 -6.6770 117° Southeast 490 564 35,000  Level FlightAware UK
05:10AM 48.7122 -6.6237 117° Southeast 490 564 35,000  Level FlightAware UK
05:10AM 48.7290 -6.6730 117° Southeast 474 545 35,000  Level FlightAware
05:10AM 48.6944 -6.5704 117° Southeast 490 564 35,000  Level FlightAware UK
05:11AM 48.6766 -6.5173 117° Southeast 490 564 35,000  Level FlightAware UK
05:11AM 48.6690 -6.4930 117° Southeast 473 544 35,000  Level FlightAware
05:11AM 48.6408 -6.4111 117° Southeast 488 562 35,000  Level FlightAware UK
05:12AM 48.6180 -6.3460 117° Southeast 473 544 35,000  Level FlightAware
05:12AM 48.5872 -6.2523 117° Southeast 488 562 35,000  Level FlightAware UK
05:12AM 48.5790 -6.2280 117° Southeast 473 544 35,000  Level FlightAware
05:13AM 48.5632 -6.1819 117° Southeast 488 562 35,000  Level FlightAware UK
05:13AM 48.5453 -6.1291 117° Southeast 488 562 35,000  Level FlightAware UK
05:13AM 48.5390 -6.1110 117° Southeast 473 544 35,000  Level FlightAware
05:13AM 48.5155 -6.0410 117° Southeast 488 562 35,000  Level FlightAware UK
05:14AM 48.4975 -5.9882 117° Southeast 488 562 35,000  Level FlightAware UK
05:14AM 48.4960 -5.9850 117° Southeast 473 544 35,000  Level FlightAware
05:14AM 48.4795 -5.9354 117° Southeast 490 564 35,000  Level FlightAware UK
05:14AM 48.4554 -5.8652 117° Southeast 490 564 35,000  Level FlightAware UK
05:14AM 48.4530 -5.8620 117° Southeast 473 544 35,000  Level FlightAware
05:15AM 48.4373 -5.8125 117° Southeast 490 564 35,000  Level FlightAware UK
05:15AM 48.4189 -5.7594 118° Southeast 490 564 35,000  Level FlightAware UK
05:15AM 48.4120 -5.7420 118° Southeast 473 544 35,000  Level FlightAware
05:15AM 48.3947 -5.6895 118° Southeast 490 564 35,000  Level FlightAware UK
05:16AM 48.3765 -5.6372 118° Southeast 488 562 35,000  Level FlightAware UK
05:16AM 48.3700 -5.6200 118° Southeast 472 543 35,000  Level FlightAware
05:16AM 48.3463 -5.5502 118° Southeast 488 562 35,000  Level FlightAware UK
05:17AM 48.3260 -5.4920 118° Southeast 473 544 35,000  Level FlightAware
05:17AM 48.3040 -5.4286 118° Southeast 486 559 35,000  Level FlightAware UK
05:17AM 48.2857 -5.3764 118° Southeast 486 559 35,000  Level FlightAware UK
05:17AM 48.2830 -5.3700 118° Southeast 473 544 35,000  Level FlightAware
05:18AM 48.2613 -5.3068 118° Southeast 486 559 35,000  Level FlightAware UK
05:18AM 48.2410 -5.2510 118° Southeast 474 545 35,000  Level FlightAware
05:18AM 48.2244 -5.2025 118° Southeast 486 559 35,000  Level FlightAware UK
05:19AM 48.2000 -5.1350 118° Southeast 475 547 35,000  Level FlightAware
05:19AM 48.1520 -4.9980 118° Southeast 476 548 35,000  Level FlightAware
05:20AM 48.1080 -4.8790 119° Southeast 476 548 35,000  Level FlightAware
05:21AM 48.0660 -4.7600 118° Southeast 477 549 35,000  Level FlightAware
05:22AM 48.0210 -4.6350 118° Southeast 479 551 35,000  Level FlightAware
05:22AM 47.9790 -4.5180 118° Southeast 479 551 35,000  Level FlightAware
05:23AM 47.9320 -4.3900 119° Southeast 480 552 35,000  Level FlightAware
05:24AM 47.8910 -4.2770 118° Southeast 481 554 35,000  Level FlightAware
05:24AM 47.8430 -4.1460 119° Southeast 481 554 35,000  Level FlightAware
05:25AM 47.8000 -4.0310 119° Southeast 480 552 35,000  Level FlightAware
05:26AM 47.7550 -3.9090 119° Southeast 480 552 35,000  Level FlightAware
05:26AM 47.7100 -3.7880 119° Southeast 479 551 35,000  Level FlightAware
05:27AM 47.6620 -3.6590 119° Southeast 480 552 35,000  Level FlightAware
05:28AM 47.6220 -3.5530 119° Southeast 480 552 35,000  Level FlightAware
05:29AM 47.5730 -3.4210 119° Southeast 480 552 35,000  Level FlightAware
05:29AM 47.5270 -3.3000 119° Southeast 481 554 35,000  Level FlightAware
05:30AM 47.4900 -3.2020 119° Southeast 481 554 35,000  Level FlightAware
05:31AM 47.4350 -3.0560 119° Southeast 482 555 35,000  Level FlightAware
05:31AM 47.3900 -2.9420 120° Southeast 482 555 35,000  Level FlightAware
05:32AM 47.3440 -2.8220 119° Southeast 482 555 35,000  Level FlightAware
05:33AM 47.2990 -2.7080 120° Southeast 481 554 35,000  Level FlightAware
05:33AM 47.2510 -2.5830 119° Southeast 482 555 35,000  Level FlightAware
05:34AM 47.2060 -2.4690 120° Southeast 483 556 35,000  Level FlightAware
05:35AM 47.1540 -2.3360 120° Southeast 483 556 35,000  Level FlightAware
05:35AM 47.1160 -2.2390 120° Southeast 484 557 35,000  Level FlightAware
05:36AM 47.0740 -2.1310 120° Southeast 484 557 35,000  Level FlightAware
05:37AM 47.0230 -2.0040 120° Southeast 484 557 35,000  Level FlightAware
05:38AM 46.9700 -1.8730 121° Southeast 486 559 35,000  Level FlightAware
05:38AM 46.9270 -1.7630 120° Southeast 487 560 35,000  Level FlightAware
05:39AM 46.8740 -1.6320 121° Southeast 487 560 35,000  Level FlightAware
05:40AM 46.8290 -1.5220 121° Southeast 488 562 35,000  Level FlightAware
05:40AM 46.7810 -1.4060 121° Southeast 489 563 35,000  Level FlightAware
05:41AM 46.7360 -1.2930 120° Southeast 489 563 35,000  Level FlightAware
05:42AM 46.6840 -1.1680 121° Southeast 490 564 35,000  Level FlightAware
05:42AM 46.6350 -1.0470 120° Southeast 489 563 35,000  Level FlightAware
05:43AM 46.5860 -0.9280 121° Southeast 488 562 35,000  Level FlightAware
05:44AM 46.5350 -0.8070 121° Southeast 488 562 35,000  Level FlightAware
05:44AM 46.4950 -0.7100 121° Southeast 489 563 35,000  Level FlightAware
05:45AM 46.4270 -0.5470 121° Southeast 491 565 35,000  Level FlightAware
05:46AM 46.3760 -0.4230 121° Southeast 486 559 35,000  Level FlightAware
05:47AM 46.3300 -0.3100 120° Southeast 487 560 35,000  Level FlightAware
05:47AM 46.2850 -0.2030 121° Southeast 488 562 35,000  Level FlightAware
05:48AM 46.2310 -0.0740 121° Southeast 492 566 35,000  Level FlightAware
05:49AM 46.1850 0.0350 121° Southeast 491 565 35,000  Level FlightAware
05:50AM 46.1290 0.1670 121° Southeast 492 566 35,000  Level FlightAware
05:50AM 46.0810 0.2780 122° Southeast 492 566 35,000  Level FlightAware
05:51AM 46.0250 0.4180 120° Southeast 490 564 35,000  Level FlightAware
05:52AM 45.9870 0.5610 111° Southeast 495 570 35,000  Level FlightAware
05:53AM 45.9560 0.6810 110° East 492 566 35,000  Level FlightAware
05:53AM 45.9210 0.8100 111° Southeast 495 570 35,000  Level FlightAware
05:54AM 45.8800 0.9640 111° Southeast 495 570 35,000  Level FlightAware
05:55AM 45.8500 1.0800 110° East 494 568 35,000  Level FlightAware
05:56AM 45.8100 1.2260 111° Southeast 492 566 35,000  Level FlightAware
05:56AM 45.7780 1.3450 111° Southeast 492 566 35,000  Level FlightAware
05:57AM 45.7430 1.4720 112° Southeast 493 567 35,000  Level FlightAware
05:58AM 45.7070 1.6050 111° Southeast 492 566 35,000  Level FlightAware
05:58AM 45.6700 1.7380 112° Southeast 490 564 35,000  Level FlightAware
05:59AM 45.6370 1.8580 111° Southeast 490 564 35,000  Level FlightAware
06:00AM 45.6010 1.9880 112° Southeast 491 565 35,000  Level FlightAware
06:00AM 45.5600 2.1040 117° Southeast 494 568 35,000  Level FlightAware
06:01AM 45.5110 2.2330 118° Southeast 495 570 35,000  Level FlightAware
06:02AM 45.4680 2.3480 118° Southeast 496 571 35,000  Level FlightAware
06:02AM 45.4300 2.4520 117° Southeast 496 571 35,000  Level FlightAware
06:03AM 45.3850 2.5740 118° Southeast 498 573 35,000  Level FlightAware
06:04AM 45.3370 2.7080 117° Southeast 495 570 35,000  Level FlightAware
06:05AM 45.2810 2.8520 119° Southeast 499 574 35,000  Level FlightAware
06:06AM 45.2070 3.0510 118° Southeast 499 574 35,000  Level FlightAware
06:07AM 45.1630 3.1700 118° Southeast 499 574 35,000  Level FlightAware
06:07AM 45.1150 3.2940 119° Southeast 498 573 35,000  Level FlightAware
06:08AM 45.0680 3.4200 118° Southeast 499 574 35,000  Level FlightAware
06:09AM 45.0240 3.5390 118° Southeast 501 577 35,000  Level FlightAware
06:09AM 44.9920 3.6760 108° East 501 577 35,000  Level FlightAware
06:10AM 44.9560 3.8420 107° East 503 579 35,000  Level FlightAware
06:11AM 44.9310 3.9510 108° East 504 580 35,000  Level FlightAware
06:12AM 44.8980 4.0960 108° East 504 580 35,000  Level FlightAware
06:12AM 44.8620 4.2410 109° East 505 581 35,000  Level FlightAware
06:13AM 44.8210 4.3650 115° Southeast 501 577 35,000  Level FlightAware
06:14AM 44.7780 4.4660 121° Southeast 502 578 35,000  Level FlightAware
06:15AM 44.7250 4.5960 120° Southeast 501 577 35,000  Level FlightAware
06:15AM 44.6780 4.7160 119° Southeast 501 577 35,000  Level FlightAware
06:16AM 44.6330 4.8330 118° Southeast 499 574 35,000  Level FlightAware
06:17AM 44.5850 4.9550 119° Southeast 499 574 35,000  Level FlightAware
06:18AM 44.5270 5.1020 119° Southeast 498 573 35,000  Level FlightAware
06:18AM 44.4720 5.2360 120° Southeast 493 567 35,000  Level FlightAware
06:19AM 44.4240 5.3490 121° Southeast 493 567 35,000  Level FlightAware
06:20AM 44.3780 5.4610 120° Southeast 493 567 35,000  Level FlightAware
06:20AM 44.3330 5.5690 120° Southeast 494 568 35,000  Level FlightAware
06:21AM 44.2790 5.6960 121° Southeast 494 568 35,000  Level FlightAware
06:22AM 44.2340 5.8010 121° Southeast 495 570 35,000  Level FlightAware
06:22AM 44.1830 5.9230 120° Southeast 496 571 35,000  Level FlightAware
06:23AM 44.1320 6.0420 121° Southeast 501 577 35,000  Level FlightAware
06:24AM 44.0800 6.1640 121° Southeast 502 578 35,000  Level FlightAware
06:25AM 44.0330 6.2720 121° Southeast 503 579 35,000  Level FlightAware
06:25AM 43.9820 6.3890 121° Southeast 503 579 35,000  Level FlightAware
06:26AM 43.9300 6.5100 121° Southeast 502 578 35,000  Level FlightAware
06:27AM 43.8800 6.6260 121° Southeast 503 579 35,000  Level FlightAware
06:27AM 43.8250 6.7500 122° Southeast 504 580 35,000  Level FlightAware
06:28AM 43.7760 6.8630 121° Southeast 505 581 35,000  Level FlightAware
06:29AM 43.7280 6.9730 121° Southeast 506 582 35,000  Level FlightAware
06:29AM 43.6800 7.0810 122° Southeast 506 582 35,000  Level FlightAware
06:30AM 43.6270 7.2140 119° Southeast 507 583 35,000  Level FlightAware
06:31AM 43.5830 7.3280 118° Southeast 506 582 35,000  Level FlightAware
06:32AM 43.5360 7.4500 118° Southeast 507 583 35,000  Level FlightAware
06:32AM 43.4900 7.5670 118° Southeast 506 582 35,000  Level FlightAware
06:33AM 43.4440 7.6830 119° Southeast 507 583 35,000  Level FlightAware
06:34AM 43.3970 7.8020 118° Southeast 507 583 35,000  Level FlightAware
06:34AM 43.3520 7.9150 119° Southeast 507 583 35,000  Level FlightAware
06:35AM 43.2900 8.0730 118° Southeast 508 585 35,000  Level FlightAware
06:36AM 43.2420 8.1910 119° Southeast 508 585 35,000  Level FlightAware
06:37AM 43.1930 8.3160 118° Southeast 508 585 35,000  Level FlightAware
06:37AM 43.1370 8.4530 119° Southeast 507 583 35,000  Level FlightAware
06:38AM 43.1030 8.5370 119° Southeast 507 583 35,000  Level FlightAware
06:39AM 43.0490 8.6690 119° Southeast 506 582 35,000  Level FlightAware
06:40AM 42.9980 8.7950 119° Southeast 507 583 35,000  Level FlightAware
06:40AM 42.9500 8.9120 119° Southeast 507 583 35,000  Level FlightAware
06:41AM 42.9010 9.0290 120° Southeast 507 583 35,000  Level FlightAware
06:42AM 42.8560 9.1400 119° Southeast 506 582 35,000  Level FlightAware
06:42AM 42.8070 9.2570 120° Southeast 507 583 35,000  Level FlightAware
06:43AM 42.7550 9.3850 119° Southeast 506 582 35,000  Level FlightAware
06:44AM 42.7080 9.4800 124° Southeast 505 581 35,000  Level FlightAware
06:44AM 42.6460 9.6000 125° Southeast 505 581 35,000  Level FlightAware
06:45AM 42.5890 9.7160 124° Southeast 505 581 35,000  Level FlightAware
06:46AM 42.5420 9.8130 123° Southeast 505 581 35,000  Level FlightAware
06:47AM 42.4800 9.9380 124° Southeast 507 583 35,000  Level FlightAware
06:47AM 42.4270 10.0460 124° Southeast 508 585 35,000  Level FlightAware
06:48AM 42.3750 10.1490 124° Southeast 510 587 35,000  Level FlightAware
06:49AM 42.3140 10.2740 123° Southeast 512 589 35,000  Level FlightAware
06:49AM 42.2660 10.3690 124° Southeast 512 589 35,000  Level FlightAware
06:50AM 42.1680 10.5630 124° Southeast 514 592 35,000  Level FlightAware
06:51AM 42.1080 10.6820 124° Southeast 516 594 35,000  Level FlightAware
06:52AM 42.0570 10.7830 124° Southeast 516 594 35,000  Level FlightAware
06:53AM 42.0040 10.8870 124° Southeast 518 596 35,000  Level FlightAware
06:53AM 41.9400 11.0140 124° Southeast 518 596 35,000  Level FlightAware
06:54AM 41.8860 11.1180 125° Southeast 515 593 35,000  Level FlightAware
06:55AM 41.8310 11.2260 124° Southeast 515 593 35,000  Level FlightAware
06:55AM 41.7700 11.3450 124° Southeast 514 592 35,000 480 Level FlightAware
06:56AM 41.7140 11.4510 125° Southeast 517 595 35,700 1,200 Climbing FlightAware
06:57AM 41.6540 11.5650 125° Southeast 517 595 36,700 900 Climbing FlightAware
06:57AM 41.5970 11.6760 124° Southeast 518 596 37,000 180 Climbing FlightAware
06:58AM 41.5350 11.7950 125° Southeast 518 596 37,000  Level FlightAware
06:59AM 41.4810 11.8980 125° Southeast 518 596 37,000  Level FlightAware
07:00AM 41.4230 12.0050 126° Southeast 517 595 37,000  Level FlightAware
07:00AM 41.3600 12.1260 125° Southeast 516 594 37,000  Level FlightAware
07:01AM 41.3150 12.2090 126° Southeast 514 592 37,000  Level FlightAware
07:02AM 41.2470 12.3370 125° Southeast 519 597 37,000  Level FlightAware
07:02AM 41.1830 12.4560 126° Southeast 519 597 37,000  Level FlightAware
07:03AM 41.1290 12.5570 125° Southeast 519 597 37,000  Level FlightAware
07:04AM 41.0750 12.6570 126° Southeast 519 597 37,000  Level FlightAware
07:04AM 41.0160 12.7660 126° Southeast 520 598 37,000  Level FlightAware
07:05AM 40.9580 12.8740 125° Southeast 518 596 37,000  Level FlightAware
07:06AM 40.8860 13.0170 124° Southeast 521 600 37,000  Level FlightAware
07:07AM 40.8290 13.1470 120° Southeast 524 603 37,000  Level FlightAware
07:07AM 40.7780 13.2640 120° Southeast 526 605 37,000  Level FlightAware
07:08AM 40.7210 13.3950 120° Southeast 529 609 37,000  Level FlightAware
07:09AM 40.6710 13.5090 120° Southeast 529 609 37,000  Level FlightAware
07:10AM 40.6240 13.6120 121° Southeast 530 610 37,000  Level FlightAware
07:10AM 40.5920 13.6870 119° Southeast 531 611 37,000  Level FlightAware
07:11AM 40.5350 13.8150 120° Southeast 532 612 37,000  Level FlightAware
07:12AM 40.4600 13.9800 121° Southeast 534 615 37,000  Level FlightAware
07:12AM 40.4110 14.0920 120° Southeast 535 616 37,000  Level FlightAware
07:13AM 40.3520 14.2200 121° Southeast 534 615 37,000  Level FlightAware
07:14AM 40.2990 14.3370 121° Southeast 534 615 37,000  Level FlightAware
07:15AM 40.2470 14.4510 121° Southeast 533 613 37,000  Level FlightAware
07:15AM 40.1940 14.5670 121° Southeast 532 612 37,000  Level FlightAware
07:16AM 40.1420 14.6800 121° Southeast 532 612 37,000  Level FlightAware
07:17AM 40.0890 14.7960 121° Southeast 533 613 37,000  Level FlightAware
07:17AM 40.0360 14.9110 121° Southeast 533 613 37,000  Level FlightAware
07:18AM 39.9790 15.0350 121° Southeast 533 613 37,000  Level FlightAware
07:19AM 39.9280 15.1430 122° Southeast 535 616 37,000  Level FlightAware
07:20AM 39.8740 15.2610 121° Southeast 537 618 37,000  Level FlightAware
07:20AM 39.8170 15.3830 121° Southeast 539 620 37,000  Level FlightAware
07:21AM 39.7620 15.4990 122° Southeast 540 621 37,000  Level FlightAware
07:22AM 39.7080 15.6130 122° Southeast 541 623 37,000  Level FlightAware
07:22AM 39.6630 15.7070 122° Southeast 542 624 37,000  Level FlightAware
07:23AM 39.5950 15.8510 121° Southeast 543 625 37,000  Level FlightAware
07:24AM 39.5450 15.9560 122° Southeast 545 627 37,000  Level FlightAware
07:24AM 39.4860 16.0830 121° Southeast 550 633 37,000  Level FlightAware
07:25AM 39.4650 16.1530 111° Southeast 554 638 37,000  Level FlightAware
07:25AM 39.4280 16.2740 112° Southeast 556 640 37,000  Level FlightAware
07:26AM 39.3900 16.3970 112° Southeast 557 641 37,000  Level FlightAware
07:27AM 39.3520 16.5180 112° Southeast 559 643 37,000  Level FlightAware
07:28AM 39.3070 16.6530 113° Southeast 561 646 37,000  Level FlightAware
07:28AM 39.2630 16.7850 113° Southeast 562 647 37,000  Level FlightAware
07:29AM 39.2180 16.9170 114° Southeast 561 646 37,000  Level FlightAware
07:30AM 39.1760 17.0430 113° Southeast 561 646 37,000  Level FlightAware
07:30AM 39.1540 17.1070 114° Southeast 561 646 37,000  Level FlightAware
07:31AM 39.1040 17.2580 113° Southeast 565 650 37,000  Level FlightAware
07:32AM 39.0660 17.3730 113° Southeast 567 652 37,000  Level FlightAware
07:32AM 39.0160 17.5260 113° Southeast 567 652 37,000  Level FlightAware
07:33AM 38.9730 17.6580 113° Southeast 571 657 37,000  Level FlightAware
07:34AM 38.9170 17.8260 113° Southeast 571 657 37,000  Level FlightAware
07:35AM 38.8700 17.9670 113° Southeast 574 661 37,000  Level FlightAware
07:35AM 38.8300 18.0860 113° Southeast 575 662 37,000  Level FlightAware
07:36AM 38.7830 18.2270 113° Southeast 577 664 37,000  Level FlightAware
07:37AM 38.7380 18.3590 114° Southeast 577 664 37,000  Level FlightAware
07:38AM 38.6960 18.4810 114° Southeast 579 666 37,000  Level FlightAware
07:38AM 38.6540 18.6070 113° Southeast 579 666 37,000  Level FlightAware
07:39AM 38.6120 18.7290 114° Southeast 580 667 37,000  Level FlightAware
07:40AM 38.5490 18.9110 114° Southeast 581 669 37,000  Level FlightAware
07:41AM 38.4900 19.1030 111° Southeast 582 670 37,000  Level FlightAware
07:41AM 38.4560 19.2340 108° East 582 670 37,000  Level FlightAware
07:42AM 38.4210 19.3680 108° East 583 671 37,000  Level FlightAware
07:43AM 38.3810 19.5110 110° East 585 673 37,000  Level FlightAware
07:43AM 38.3410 19.6420 111° Southeast 582 670 37,000  Level FlightAware
07:44AM 38.2970 19.7830 112° Southeast 582 670 37,000  Level FlightAware
07:45AM 38.2530 19.9260 111° Southeast 582 670 37,000  Level FlightAware
07:46AM 38.2140 20.0540 111° Southeast 583 671 37,000  Level FlightAware
07:46AM 38.1750 20.1820 111° Southeast 583 671 37,000  Level FlightAware
07:47AM 38.1350 20.3120 111° Southeast 583 671 37,000  Level FlightAware
07:48AM 38.0960 20.4360 112° Southeast 583 671 37,000  Level FlightAware
07:48AM 38.0510 20.5830 111° Southeast 581 669 37,000  Level FlightAware
07:49AM 38.0110 20.7100 112° Southeast 581 669 37,000  Level FlightAware
07:50AM 37.9700 20.8370 112° Southeast 581 669 37,000  Level FlightAware
07:50AM 37.9250 20.9800 112° Southeast 581 669 37,000  Level FlightAware
07:51AM 37.8870 21.0970 112° Southeast 582 670 37,000  Level FlightAware
07:52AM 37.8250 21.2940 112° Southeast 584 672 37,000  Level FlightAware
07:53AM 37.7790 21.4360 112° Southeast 584 672 37,000  Level FlightAware
07:53AM 37.7380 21.5590 113° Southeast 583 671 37,000  Level FlightAware
07:54AM 37.6880 21.6840 117° Southeast 583 671 37,000  Level FlightAware
07:55AM 37.6410 21.8020 117° Southeast 582 670 37,000  Level FlightAware
07:56AM 37.5850 21.9410 117° Southeast 582 670 37,000  Level FlightAware
07:56AM 37.5350 22.0650 117° Southeast 583 671 37,000  Level FlightAware
07:57AM 37.4800 22.1970 118° Southeast 583 671 37,000  Level FlightAware
07:58AM 37.4250 22.3330 117° Southeast 582 670 37,000  Level FlightAware
07:58AM 37.3780 22.4470 117° Southeast 582 670 37,000  Level FlightAware
07:59AM 37.3240 22.5760 118° Southeast 581 669 37,000  Level FlightAware
08:00AM 37.2780 22.6980 115° Southeast 581 669 37,000  Level FlightAware
08:00AM 37.2350 22.8210 114° Southeast 581 669 37,000  Level FlightAware
08:01AM 37.1880 22.9610 113° Southeast 581 669 37,000  Level FlightAware
08:02AM 37.1420 23.1010 112° Southeast 581 669 37,000  Level FlightAware
08:03AM 37.0980 23.2320 113° Southeast 582 670 37,000  Level FlightAware
08:03AM 37.0570 23.3560 112° Southeast 581 669 37,000  Level FlightAware
08:04AM 37.0130 23.4860 113° Southeast 580 667 37,000  Level FlightAware
08:05AM 36.9550 23.6590 113° Southeast 580 667 37,000  Level FlightAware
08:06AM 36.9130 23.7850 113° Southeast 580 667 37,000  Level FlightAware
08:06AM 36.8660 23.9240 113° Southeast 580 667 37,000  Level FlightAware
08:07AM 36.8240 24.0470 113° Southeast 580 667 37,000  Level FlightAware
08:08AM 36.7800 24.1730 114° Southeast 580 667 37,000  Level FlightAware
08:08AM 36.7350 24.3050 113° Southeast 580 667 37,000  Level FlightAware
08:09AM 36.6920 24.4310 113° Southeast 580 667 37,000  Level FlightAware
08:10AM 36.6290 24.6120 113° Southeast 579 666 37,000  Level FlightAware
08:10AM 36.6030 24.6850 114° Southeast 579 666 37,000  Level FlightAware
08:11AM 36.5670 24.7890 113° Southeast 579 666 37,000  Level FlightAware
08:12AM 36.5140 24.9420 113° Southeast 576 663 37,000  Level FlightAware
08:13AM 36.4710 25.0640 114° Southeast 576 663 37,000  Level FlightAware
08:13AM 36.4270 25.1860 114° Southeast 576 663 37,000  Level FlightAware
08:14AM 36.3730 25.3380 114° Southeast 576 663 37,000  Level FlightAware
08:15AM 36.3360 25.4410 114° Southeast 578 665 37,000  Level FlightAware
08:15AM 36.2860 25.5810 114° Southeast 578 665 37,000  Level FlightAware
08:16AM 36.2420 25.7030 114° Southeast 578 665 37,000  Level FlightAware
08:17AM 36.1950 25.8330 114° Southeast 579 666 37,000  Level FlightAware
08:17AM 36.1510 25.9550 114° Southeast 579 666 37,000  Level FlightAware
08:18AM 36.0990 26.1010 114° Southeast 583 671 37,000  Level FlightAware
08:19AM 36.0420 26.2550 115° Southeast 582 670 37,000  Level FlightAware
08:20AM 35.9850 26.4100 114° Southeast 582 670 37,000  Level FlightAware
08:21AM 35.9330 26.5490 115° Southeast 582 670 37,000  Level FlightAware
08:22AM 35.8730 26.7120 114° Southeast 581 669 37,000  Level FlightAware
08:23AM 35.8150 26.8680 115° Southeast 580 667 37,000  Level FlightAware
08:23AM 35.7650 27.0000 115° Southeast 580 667 37,000  Level FlightAware
08:24AM 35.7180 27.1250 115° Southeast 578 665 37,000  Level FlightAware
08:25AM 35.6780 27.2330 114° Southeast 577 664 37,000  Level FlightAware
08:25AM 35.6360 27.3480 114° Southeast 577 664 37,000  Level FlightAware
08:26AM 35.6040 27.4370 114° Southeast 577 664 37,000  Level FlightAware
08:27AM 35.5600 27.5590 114° Southeast 577 664 37,000  Level FlightAware
08:27AM 35.5240 27.6590 114° Southeast 577 664 37,000  Level FlightAware
08:28AM 35.4260 27.8900 117° Southeast 576 663 37,000  Level FlightAware
08:29AM 35.3860 27.9900 116° Southeast 574 661 37,000  Level FlightAware
08:30AM 35.3470 28.0940 115° Southeast 578 665 37,000  Level FlightAware
08:31AM 35.2590 28.3160 116° Southeast 582 670 37,000  Level FlightAware
08:31AM 35.2100 28.4440 115° Southeast 583 671 37,000  Level FlightAware
08:32AM 35.1610 28.5660 116° Southeast 584 672 37,000  Level FlightAware
08:33AM 35.1160 28.6790 116° Southeast 583 671 37,000  Level FlightAware
08:34AM 35.0500 28.8470 116° Southeast 579 666 37,000  Level FlightAware
08:34AM 34.9980 28.9770 116° Southeast 579 666 37,000  Level FlightAware
08:35AM 34.9330 29.1400 116° Southeast 582 670 37,000  Level FlightAware
08:36AM 34.8830 29.2640 116° Southeast 581 669 37,000  Level FlightAware
08:37AM 34.8460 29.3540 117° Southeast 37,000  Level FlightAware
08:37AM 34.7990 29.4720 116° Southeast 580 667 37,000  Level FlightAware
08:38AM 34.7370 29.6240 116° Southeast 580 667 37,000  Level FlightAware
08:39AM 34.6890 29.7430 116° Southeast 580 667 37,000  Level FlightAware
08:39AM 34.6440 29.8510 117° Southeast 579 666 37,000  Level FlightAware
08:40AM 34.5850 29.9900 117° Southeast 579 666 37,000  Level FlightAware
08:41AM 34.5260 30.1130 120° Southeast 578 665 37,000  Level FlightAware
08:42AM 34.4700 30.2280 121° Southeast 576 663 37,000  Level FlightAware
08:42AM 34.4150 30.3440 120° Southeast 574 661 37,000  Level FlightAware
08:43AM 34.3560 30.4640 121° Southeast 572 658 37,000  Level FlightAware
08:44AM 34.3020 30.5770 120° Southeast 566 651 37,000  Level FlightAware
08:44AM 34.2410 30.7030 120° Southeast 565 650 37,000  Level FlightAware
08:45AM 34.1740 30.8430 120° Southeast 568 654 37,000  Level FlightAware
08:46AM 34.1010 30.9930 120° Southeast 567 652 37,000  Level FlightAware
08:47AM 34.0490 31.1000 120° Southeast 568 654 37,000  Level FlightAware
08:48AM 33.9860 31.2280 121° Southeast 566 651 37,000  Level FlightAware
08:48AM 33.9330 31.3360 121° Southeast 565 650 37,000  Level FlightAware
08:49AM 33.8780 31.4470 121° Southeast 564 649 37,000  Level FlightAware
08:50AM 33.8170 31.5710 121° Southeast 563 648 37,000  Level FlightAware
08:50AM 33.7620 31.6810 121° Southeast 564 649 37,000  Level FlightAware
08:51AM 33.7010 31.8020 121° Southeast 563 648 37,000  Level FlightAware
08:52AM 33.6500 31.9040 121° Southeast 562 647 37,000  Level FlightAware
08:52AM 33.5930 32.0190 121° Southeast 562 647 37,000  Level FlightAware
08:53AM 33.5360 32.1330 121° Southeast 561 646 37,000  Level FlightAware
08:54AM 33.4800 32.2420 122° Southeast 560 644 37,000  Level FlightAware
08:55AM 33.4000 32.4010 121° Southeast 557 641 37,000  Level FlightAware
08:55AM 33.3570 32.4850 121° Southeast 556 640 37,000 -600 Level FlightAware
08:56AM 33.2930 32.6090 122° Southeast 559 643 36,200 -1,740 Descending FlightAware
08:57AM 33.2360 32.7210 121° Southeast 554 638 34,400 -2,700 Descending FlightAware
08:58AM 33.1620 32.8670 121° Southeast 550 633 31,900 -2,760 Descending FlightAware
08:59AM 33.1070 32.9740 122° Southeast 535 616 30,200 -2,400 Descending FlightAware
08:59AM 33.0520 33.0810 121° Southeast 520 598 28,500 -2,460 Descending FlightAware
09:00AM 32.9960 33.1890 122° Southeast 503 579 26,700 -2,220 Descending FlightAware
09:01AM 32.9480 33.2790 122° Southeast 487 560 25,300 -2,040 Descending FlightAware
09:01AM 32.9060 33.3620 121° Southeast 467 537 24,000 -2,280 Descending FlightAware
09:02AM 32.8510 33.4650 122° Southeast 449 517 22,300 -2,220 Descending FlightAware
09:03AM 32.8030 33.5580 122° Southeast 432 497 20,800 -1,980 Descending FlightAware
09:03AM 32.7600 33.6390 122° Southeast 418 481 19,500 -1,860 Descending FlightAware
09:04AM 32.7180 33.7200 122° Southeast 406 467 18,200 -1,740 Descending FlightAware
09:05AM 32.6850 33.7810 123° Southeast 399 459 17,100 -1,920 Descending FlightAware
09:06AM 32.6360 33.8750 122° Southeast 387 445 15,600 -1,980 Descending FlightAware
09:06AM 32.6040 33.9350 122° Southeast 379 436 14,600 -1,740 Descending FlightAware
09:07AM 32.5580 34.0240 122° Southeast 365 420 13,200 -1,620 Descending FlightAware
09:08AM 32.5230 34.0890 123° Southeast 356 410 12,200 -1,560 Descending FlightAware
09:08AM 32.4870 34.1550 123° Southeast 347 399 11,100 -1,440 Descending FlightAware
09:09AM 32.4400 34.2150 133° Southeast 328 377 10,200 -900 Descending FlightAware
09:10AM 32.4010 34.2600 136° Southeast 301 346 9,900 -540 Descending FlightAware
09:10AM 32.3910 34.2710 137° Southeast 295 339 9,800 -1,140 Descending FlightAware
09:10AM 32.3540 34.3140 136° Southeast 293 337 9,000 -1,200 Descending FlightAware
09:11AM 32.3260 34.3470 135° Southeast 285 328 8,500 -540 Descending FlightAware
09:12AM 32.2930 34.3870 134° Southeast 284 327 8,400 -120 Descending FlightAware
09:12AM 32.2740 34.4090 136° Southeast 284 327 8,400  Level FlightAware
09:12AM 32.2550 34.4320 134° Southeast 284 327 8,400  Level FlightAware
09:15AM 32.0819 34.7035 115° Southeast  Level FlightAware Approximate
09:16AM 32.0114 34.8478 125° Southeast  Level FlightAware Approximate
09:17AM 32.0000 34.8667 125° Southeast  Level FlightAware Approximate
09:18AM 32.0095 34.8769 125° Southeast  Level Estimated
09:19AM 32.0095 34.8769 125° Southeast  Level Estimated
09:20AM 32.0095 34.8769 125° Southeast  Level Estimated
09:21AM 32.0095 34.8769 125° Southeast  Level Estimated
09:22AM 32.0095 34.8769 125° Southeast  Level Estimated
09:23AM 32.0095 34.8769 125° Southeast  Level Estimated
09:24AM 32.0095 34.8769 125° Southeast  Level Estimated